sensor_id;sensor_type;location;lat;lon;timestamp;P1;durP1;ratioP1;P2;durP2;ratioP2
41627;SDS011;27321;50.816;6.054;2023-02-25T00:02:26;10.53;;;2.87;;
41627;SDS011;27321;50.816;6.054;2023-02-25T00:05:27;11.43;;;2.10;;
41627;SDS011;27321;50.816;6.054;2023-02-25T00:08:29;10.53;;;2.47;;
41627;SDS011;27321;50.816;6.054;2023-02-25T00:11:31;12.68;;;2.70;;
41627;SDS011;27321;50.816;6.054;2023-02-25T00:14:32;7.82;;;2.80;;
41627;SDS011;27321;50.816;6.054;2023-02-25T00:17:33;9.57;;;2.40;;
41627;SDS011;27321;50.816;6.054;2023-02-25T00:23:40;5.70;;;2.13;;
41627;SDS011;27321;50.816;6.054;2023-02-25T00:26:47;12.97;;;2.40;;
41627;SDS011;27321;50.816;6.054;2023-02-25T00:29:51;13.30;;;2.77;;
41627;SDS011;27321;50.816;6.054;2023-02-25T00:32:53;7.93;;;2.53;;
41627;SDS011;27321;50.816;6.054;2023-02-25T00:35:54;7.68;;;2.70;;
41627;SDS011;27321;50.816;6.054;2023-02-25T00:38:55;6.20;;;2.47;;
41627;SDS011;27321;50.816;6.054;2023-02-25T00:41:56;11.68;;;2.53;;
41627;SDS011;27321;50.816;6.054;2023-02-25T00:44:57;8.67;;;2.60;;
41627;SDS011;27321;50.816;6.054;2023-02-25T00:47:58;6.20;;;2.33;;
41627;SDS011;27321;50.816;6.054;2023-02-25T00:51:07;8.80;;;2.33;;
41627;SDS011;27321;50.816;6.054;2023-02-25T00:54:15;7.93;;;2.67;;
41627;SDS011;27321;50.816;6.054;2023-02-25T00:57:16;7.80;;;2.73;;
41627;SDS011;27321;50.816;6.054;2023-02-25T01:00:17;11.45;;;3.35;;
41627;SDS011;27321;50.816;6.054;2023-02-25T01:03:18;13.40;;;2.22;;
41627;SDS011;27321;50.816;6.054;2023-02-25T01:06:19;9.00;;;2.43;;
41627;SDS011;27321;50.816;6.054;2023-02-25T01:09:20;12.43;;;3.00;;
41627;SDS011;27321;50.816;6.054;2023-02-25T01:12:21;10.57;;;2.53;;
41627;SDS011;27321;50.816;6.054;2023-02-25T01:15:22;12.00;;;2.70;;
41627;SDS011;27321;50.816;6.054;2023-02-25T01:18:23;7.68;;;2.42;;
41627;SDS011;27321;50.816;6.054;2023-02-25T01:21:31;7.83;;;2.23;;
41627;SDS011;27321;50.816;6.054;2023-02-25T01:24:35;8.33;;;2.23;;
41627;SDS011;27321;50.816;6.054;2023-02-25T01:27:36;7.70;;;2.00;;
41627;SDS011;27321;50.816;6.054;2023-02-25T01:30:37;6.97;;;2.50;;
41627;SDS011;27321;50.816;6.054;2023-02-25T01:33:38;13.57;;;3.13;;
41627;SDS011;27321;50.816;6.054;2023-02-25T01:36:40;12.68;;;2.78;;
41627;SDS011;27321;50.816;6.054;2023-02-25T01:39:42;8.13;;;2.40;;
41627;SDS011;27321;50.816;6.054;2023-02-25T01:42:44;8.07;;;2.42;;
41627;SDS011;27321;50.816;6.054;2023-02-25T01:52:39;8.47;;;2.53;;
41627;SDS011;27321;50.816;6.054;2023-02-25T01:55:41;11.80;;;2.30;;
41627;SDS011;27321;50.816;6.054;2023-02-25T01:58:43;6.65;;;2.05;;
41627;SDS011;27321;50.816;6.054;2023-02-25T02:01:45;8.57;;;1.63;;
41627;SDS011;27321;50.816;6.054;2023-02-25T02:04:47;6.43;;;2.35;;
41627;SDS011;27321;50.816;6.054;2023-02-25T02:07:54;5.20;;;1.93;;
41627;SDS011;27321;50.816;6.054;2023-02-25T02:10:58;9.10;;;2.23;;
41627;SDS011;27321;50.816;6.054;2023-02-25T02:14:03;5.30;;;2.30;;
41627;SDS011;27321;50.816;6.054;2023-02-25T02:20:21;6.43;;;1.88;;
41627;SDS011;27321;50.816;6.054;2023-02-25T02:23:38;7.33;;;1.93;;
41627;SDS011;27321;50.816;6.054;2023-02-25T02:27:13;8.30;;;2.03;;
41627;SDS011;27321;50.816;6.054;2023-02-25T02:33:57;7.83;;;2.30;;
41627;SDS011;27321;50.816;6.054;2023-02-25T02:37:32;9.40;;;2.13;;
41627;SDS011;27321;50.816;6.054;2023-02-25T02:40:49;6.70;;;1.40;;
41627;SDS011;27321;50.816;6.054;2023-02-25T02:44:40;11.93;;;2.07;;
41627;SDS011;27321;50.816;6.054;2023-02-25T02:47:59;7.47;;;1.70;;
41627;SDS011;27321;50.816;6.054;2023-02-25T02:51:07;8.23;;;2.27;;
41627;SDS011;27321;50.816;6.054;2023-02-25T02:54:21;10.53;;;2.20;;
41627;SDS011;27321;50.816;6.054;2023-02-25T02:57:26;7.27;;;1.93;;
41627;SDS011;27321;50.816;6.054;2023-02-25T03:00:29;8.87;;;1.87;;
41627;SDS011;27321;50.816;6.054;2023-02-25T03:03:40;6.23;;;1.80;;
41627;SDS011;27321;50.816;6.054;2023-02-25T03:06:49;7.90;;;1.80;;
41627;SDS011;27321;50.816;6.054;2023-02-25T03:09:58;9.53;;;1.87;;
41627;SDS011;27321;50.816;6.054;2023-02-25T03:13:05;6.73;;;1.73;;
41627;SDS011;27321;50.816;6.054;2023-02-25T03:16:08;7.13;;;1.83;;
41627;SDS011;27321;50.816;6.054;2023-02-25T03:19:17;6.50;;;1.90;;
41627;SDS011;27321;50.816;6.054;2023-02-25T03:22:24;12.03;;;2.27;;
41627;SDS011;27321;50.816;6.054;2023-02-25T03:25:35;4.67;;;1.77;;
41627;SDS011;27321;50.816;6.054;2023-02-25T03:28:48;5.43;;;1.67;;
41627;SDS011;27321;50.816;6.054;2023-02-25T03:31:52;7.72;;;2.22;;
41627;SDS011;27321;50.816;6.054;2023-02-25T03:35:03;6.00;;;1.50;;
41627;SDS011;27321;50.816;6.054;2023-02-25T03:38:09;10.73;;;2.10;;
41627;SDS011;27321;50.816;6.054;2023-02-25T03:41:15;5.53;;;1.93;;
41627;SDS011;27321;50.816;6.054;2023-02-25T03:44:21;11.27;;;2.43;;
41627;SDS011;27321;50.816;6.054;2023-02-25T03:47:28;10.47;;;2.57;;
41627;SDS011;27321;50.816;6.054;2023-02-25T03:50:35;6.53;;;2.17;;
41627;SDS011;27321;50.816;6.054;2023-02-25T03:53:44;9.67;;;2.20;;
41627;SDS011;27321;50.816;6.054;2023-02-25T03:56:50;8.67;;;2.50;;
41627;SDS011;27321;50.816;6.054;2023-02-25T03:59:52;5.17;;;2.20;;
41627;SDS011;27321;50.816;6.054;2023-02-25T04:02:56;8.00;;;2.20;;
41627;SDS011;27321;50.816;6.054;2023-02-25T04:05:58;8.25;;;2.50;;
41627;SDS011;27321;50.816;6.054;2023-02-25T04:09:00;9.60;;;2.73;;
41627;SDS011;27321;50.816;6.054;2023-02-25T04:12:02;6.40;;;2.53;;
41627;SDS011;27321;50.816;6.054;2023-02-25T04:15:06;9.77;;;2.67;;
41627;SDS011;27321;50.816;6.054;2023-02-25T04:18:08;12.57;;;3.10;;
41627;SDS011;27321;50.816;6.054;2023-02-25T04:21:20;12.90;;;2.87;;
41627;SDS011;27321;50.816;6.054;2023-02-25T04:24:35;8.10;;;2.90;;
41627;SDS011;27321;50.816;6.054;2023-02-25T04:27:36;9.03;;;2.70;;
41627;SDS011;27321;50.816;6.054;2023-02-25T04:30:37;7.80;;;2.50;;
41627;SDS011;27321;50.816;6.054;2023-02-25T04:33:38;10.05;;;2.72;;
41627;SDS011;27321;50.816;6.054;2023-02-25T04:36:39;7.70;;;3.07;;
41627;SDS011;27321;50.816;6.054;2023-02-25T04:39:42;9.00;;;2.63;;
41627;SDS011;27321;50.816;6.054;2023-02-25T04:42:43;10.52;;;3.05;;
41627;SDS011;27321;50.816;6.054;2023-02-25T04:45:45;17.58;;;3.58;;
41627;SDS011;27321;50.816;6.054;2023-02-25T04:48:46;11.82;;;2.60;;
41627;SDS011;27321;50.816;6.054;2023-02-25T04:51:47;10.40;;;3.20;;
41627;SDS011;27321;50.816;6.054;2023-02-25T04:54:50;8.20;;;2.50;;
41627;SDS011;27321;50.816;6.054;2023-02-25T04:57:51;10.03;;;2.90;;
41627;SDS011;27321;50.816;6.054;2023-02-25T05:00:52;18.10;;;2.53;;
41627;SDS011;27321;50.816;6.054;2023-02-25T05:03:59;7.87;;;2.73;;
41627;SDS011;27321;50.816;6.054;2023-02-25T05:07:00;14.30;;;3.00;;
41627;SDS011;27321;50.816;6.054;2023-02-25T05:10:02;13.48;;;2.90;;
41627;SDS011;27321;50.816;6.054;2023-02-25T05:13:04;13.10;;;2.77;;
41627;SDS011;27321;50.816;6.054;2023-02-25T05:16:06;6.87;;;2.30;;
41627;SDS011;27321;50.816;6.054;2023-02-25T05:19:15;6.87;;;2.27;;
41627;SDS011;27321;50.816;6.054;2023-02-25T05:22:22;9.60;;;2.50;;
41627;SDS011;27321;50.816;6.054;2023-02-25T05:25:24;7.97;;;2.47;;
41627;SDS011;27321;50.816;6.054;2023-02-25T05:28:25;6.93;;;2.30;;
41627;SDS011;27321;50.816;6.054;2023-02-25T05:31:26;10.63;;;2.80;;
41627;SDS011;27321;50.816;6.054;2023-02-25T05:34:27;9.03;;;2.40;;
41627;SDS011;27321;50.816;6.054;2023-02-25T05:37:29;10.48;;;2.95;;
41627;SDS011;27321;50.816;6.054;2023-02-25T05:40:31;10.70;;;2.60;;
41627;SDS011;27321;50.816;6.054;2023-02-25T05:43:32;9.00;;;2.47;;
41627;SDS011;27321;50.816;6.054;2023-02-25T05:46:34;8.33;;;2.13;;
41627;SDS011;27321;50.816;6.054;2023-02-25T05:49:35;8.90;;;2.40;;
41627;SDS011;27321;50.816;6.054;2023-02-25T05:52:36;8.63;;;2.50;;
41627;SDS011;27321;50.816;6.054;2023-02-25T05:55:41;7.80;;;2.13;;
41627;SDS011;27321;50.816;6.054;2023-02-25T05:58:42;9.87;;;1.93;;
41627;SDS011;27321;50.816;6.054;2023-02-25T06:01:43;6.30;;;2.30;;
41627;SDS011;27321;50.816;6.054;2023-02-25T06:04:44;8.93;;;2.22;;
41627;SDS011;27321;50.816;6.054;2023-02-25T06:07:47;11.10;;;2.20;;
41627;SDS011;27321;50.816;6.054;2023-02-25T06:10:48;10.90;;;1.95;;
41627;SDS011;27321;50.816;6.054;2023-02-25T06:13:49;10.87;;;2.33;;
41627;SDS011;27321;50.816;6.054;2023-02-25T06:16:52;9.87;;;2.30;;
41627;SDS011;27321;50.816;6.054;2023-02-25T06:19:55;13.03;;;2.70;;
41627;SDS011;27321;50.816;6.054;2023-02-25T06:22:56;11.60;;;2.43;;
41627;SDS011;27321;50.816;6.054;2023-02-25T06:25:58;11.63;;;2.33;;
41627;SDS011;27321;50.816;6.054;2023-02-25T06:28:59;6.55;;;1.92;;
41627;SDS011;27321;50.816;6.054;2023-02-25T06:32:00;9.87;;;2.23;;
41627;SDS011;27321;50.816;6.054;2023-02-25T06:35:02;12.10;;;2.30;;
41627;SDS011;27321;50.816;6.054;2023-02-25T06:38:06;11.67;;;2.20;;
41627;SDS011;27321;50.816;6.054;2023-02-25T06:41:14;10.00;;;2.65;;
41627;SDS011;27321;50.816;6.054;2023-02-25T06:44:17;9.97;;;3.10;;
41627;SDS011;27321;50.816;6.054;2023-02-25T06:47:20;10.52;;;2.70;;
41627;SDS011;27321;50.816;6.054;2023-02-25T06:50:22;9.67;;;2.20;;
41627;SDS011;27321;50.816;6.054;2023-02-25T06:53:23;11.57;;;2.30;;
41627;SDS011;27321;50.816;6.054;2023-02-25T06:56:24;6.65;;;1.83;;
41627;SDS011;27321;50.816;6.054;2023-02-25T06:59:25;6.00;;;1.80;;
41627;SDS011;27321;50.816;6.054;2023-02-25T07:02:26;9.17;;;2.27;;
41627;SDS011;27321;50.816;6.054;2023-02-25T07:05:27;7.80;;;2.10;;
41627;SDS011;27321;50.816;6.054;2023-02-25T07:08:29;4.97;;;1.77;;
41627;SDS011;27321;50.816;6.054;2023-02-25T07:11:30;9.30;;;2.40;;
41627;SDS011;27321;50.816;6.054;2023-02-25T07:14:34;6.90;;;2.07;;
41627;SDS011;27321;50.816;6.054;2023-02-25T07:17:36;8.50;;;2.30;;
41627;SDS011;27321;50.816;6.054;2023-02-25T07:20:38;9.15;;;2.08;;
41627;SDS011;27321;50.816;6.054;2023-02-25T07:23:40;5.32;;;1.70;;
41627;SDS011;27321;50.816;6.054;2023-02-25T07:26:42;13.20;;;2.23;;
41627;SDS011;27321;50.816;6.054;2023-02-25T07:29:42;10.93;;;2.00;;
41627;SDS011;27321;50.816;6.054;2023-02-25T07:32:44;9.38;;;2.42;;
41627;SDS011;27321;50.816;6.054;2023-02-25T07:35:45;6.32;;;2.05;;
41627;SDS011;27321;50.816;6.054;2023-02-25T07:38:46;10.75;;;2.28;;
41627;SDS011;27321;50.816;6.054;2023-02-25T07:41:50;12.80;;;2.40;;
41627;SDS011;27321;50.816;6.054;2023-02-25T07:44:53;9.60;;;2.40;;
41627;SDS011;27321;50.816;6.054;2023-02-25T07:47:54;5.93;;;2.05;;
41627;SDS011;27321;50.816;6.054;2023-02-25T07:50:55;7.93;;;2.30;;
41627;SDS011;27321;50.816;6.054;2023-02-25T07:54:07;10.20;;;1.90;;
41627;SDS011;27321;50.816;6.054;2023-02-25T07:57:08;10.07;;;2.00;;
41627;SDS011;27321;50.816;6.054;2023-02-25T08:00:09;7.03;;;2.10;;
41627;SDS011;27321;50.816;6.054;2023-02-25T08:03:14;9.87;;;2.20;;
41627;SDS011;27321;50.816;6.054;2023-02-25T08:06:15;11.50;;;2.17;;
41627;SDS011;27321;50.816;6.054;2023-02-25T08:09:17;9.43;;;2.10;;
41627;SDS011;27321;50.816;6.054;2023-02-25T08:12:18;10.27;;;2.00;;
41627;SDS011;27321;50.816;6.054;2023-02-25T08:15:19;8.03;;;1.80;;
41627;SDS011;27321;50.816;6.054;2023-02-25T08:18:20;8.40;;;2.30;;
41627;SDS011;27321;50.816;6.054;2023-02-25T08:21:21;11.20;;;2.20;;
41627;SDS011;27321;50.816;6.054;2023-02-25T08:24:23;6.55;;;2.00;;
41627;SDS011;27321;50.816;6.054;2023-02-25T08:27:24;6.25;;;1.98;;
41627;SDS011;27321;50.816;6.054;2023-02-25T08:30:26;7.57;;;2.22;;
41627;SDS011;27321;50.816;6.054;2023-02-25T08:33:27;9.02;;;2.38;;
41627;SDS011;27321;50.816;6.054;2023-02-25T08:39:31;4.55;;;1.80;;
41627;SDS011;27321;50.816;6.054;2023-02-25T08:42:35;8.10;;;2.57;;
41627;SDS011;27321;50.816;6.054;2023-02-25T08:45:37;9.15;;;2.15;;
41627;SDS011;27321;50.816;6.054;2023-02-25T08:48:43;6.63;;;2.17;;
41627;SDS011;27321;50.816;6.054;2023-02-25T08:51:44;9.80;;;2.27;;
41627;SDS011;27321;50.816;6.054;2023-02-25T08:54:45;11.02;;;2.35;;
41627;SDS011;27321;50.816;6.054;2023-02-25T08:57:46;4.95;;;2.15;;
41627;SDS011;27321;50.816;6.054;2023-02-25T09:00:47;10.48;;;2.95;;
41627;SDS011;27321;50.816;6.054;2023-02-25T09:06:51;16.08;;;3.22;;
41627;SDS011;27321;50.816;6.054;2023-02-25T09:09:53;9.97;;;2.63;;
41627;SDS011;27321;50.816;6.054;2023-02-25T09:12:55;11.38;;;2.22;;
41627;SDS011;27321;50.816;6.054;2023-02-25T09:15:56;13.83;;;3.00;;
41627;SDS011;27321;50.816;6.054;2023-02-25T09:21:58;9.97;;;2.67;;
41627;SDS011;27321;50.816;6.054;2023-02-25T09:25:00;9.90;;;2.33;;
41627;SDS011;27321;50.816;6.054;2023-02-25T09:28:03;7.30;;;2.37;;
41627;SDS011;27321;50.816;6.054;2023-02-25T09:31:04;9.80;;;2.45;;
41627;SDS011;27321;50.816;6.054;2023-02-25T09:34:06;14.67;;;1.90;;
41627;SDS011;27321;50.816;6.054;2023-02-25T09:37:14;9.70;;;2.30;;
41627;SDS011;27321;50.816;6.054;2023-02-25T09:40:16;14.33;;;2.40;;
41627;SDS011;27321;50.816;6.054;2023-02-25T09:46:28;10.77;;;2.27;;
41627;SDS011;27321;50.816;6.054;2023-02-25T09:49:32;9.63;;;2.37;;
41627;SDS011;27321;50.816;6.054;2023-02-25T09:53:07;10.93;;;2.30;;
41627;SDS011;27321;50.816;6.054;2023-02-25T09:56:18;13.40;;;2.67;;
41627;SDS011;27321;50.816;6.054;2023-02-25T09:59:25;6.47;;;1.90;;
41627;SDS011;27321;50.816;6.054;2023-02-25T10:06:20;9.00;;;2.07;;
41627;SDS011;27321;50.816;6.054;2023-02-25T10:09:33;10.00;;;1.90;;
41627;SDS011;27321;50.816;6.054;2023-02-25T10:16:19;11.53;;;2.17;;
41627;SDS011;27321;50.816;6.054;2023-02-25T10:26:58;7.03;;;1.77;;
41627;SDS011;27321;50.816;6.054;2023-02-25T10:31:04;10.40;;;2.13;;
41627;SDS011;27321;50.816;6.054;2023-02-25T10:34:11;10.10;;;2.27;;
41627;SDS011;27321;50.816;6.054;2023-02-25T10:37:27;11.70;;;2.70;;
41627;SDS011;27321;50.816;6.054;2023-02-25T10:40:36;7.13;;;2.00;;
41627;SDS011;27321;50.816;6.054;2023-02-25T10:43:40;12.37;;;2.23;;
41627;SDS011;27321;50.816;6.054;2023-02-25T10:46:46;11.90;;;1.77;;
41627;SDS011;27321;50.816;6.054;2023-02-25T10:50:31;15.93;;;2.73;;
41627;SDS011;27321;50.816;6.054;2023-02-25T10:53:28;7.93;;;1.50;;
41627;SDS011;27321;50.816;6.054;2023-02-25T10:59:42;8.27;;;1.60;;
41627;SDS011;27321;50.816;6.054;2023-02-25T11:02:45;12.93;;;2.40;;
41627;SDS011;27321;50.816;6.054;2023-02-25T11:05:50;7.40;;;1.93;;
41627;SDS011;27321;50.816;6.054;2023-02-25T11:08:52;10.63;;;1.97;;
41627;SDS011;27321;50.816;6.054;2023-02-25T11:18:35;4.53;;;1.30;;
41627;SDS011;27321;50.816;6.054;2023-02-25T11:21:37;9.18;;;2.38;;
41627;SDS011;27321;50.816;6.054;2023-02-25T11:24:39;7.30;;;1.53;;
41627;SDS011;27321;50.816;6.054;2023-02-25T11:27:42;8.53;;;2.13;;
41627;SDS011;27321;50.816;6.054;2023-02-25T11:30:53;8.80;;;1.85;;
41627;SDS011;27321;50.816;6.054;2023-02-25T11:34:23;5.10;;;1.50;;
41627;SDS011;27321;50.816;6.054;2023-02-25T11:37:38;7.00;;;1.23;;
41627;SDS011;27321;50.816;6.054;2023-02-25T11:40:43;7.77;;;1.70;;
41627;SDS011;27321;50.816;6.054;2023-02-25T11:43:45;4.28;;;1.20;;
41627;SDS011;27321;50.816;6.054;2023-02-25T11:47:00;6.22;;;1.52;;
41627;SDS011;27321;50.816;6.054;2023-02-25T11:50:25;9.20;;;1.53;;
41627;SDS011;27321;50.816;6.054;2023-02-25T12:25:28;2.30;;;0.60;;
41627;SDS011;27321;50.816;6.054;2023-02-25T12:32:35;1.70;;;0.57;;
41627;SDS011;27321;50.816;6.054;2023-02-25T12:36:24;2.00;;;0.57;;
41627;SDS011;27321;50.816;6.054;2023-02-25T13:36:39;2.13;;;0.97;;
41627;SDS011;27321;50.816;6.054;2023-02-25T13:40:06;3.07;;;1.13;;
41627;SDS011;27321;50.816;6.054;2023-02-25T13:47:21;6.10;;;1.03;;
41627;SDS011;27321;50.816;6.054;2023-02-25T13:51:07;2.33;;;0.90;;
41627;SDS011;27321;50.816;6.054;2023-02-25T13:54:33;2.43;;;0.73;;
41627;SDS011;27321;50.816;6.054;2023-02-25T14:19:39;4.53;;;0.90;;
41627;SDS011;27321;50.816;6.054;2023-02-25T14:29:41;2.00;;;0.97;;
41627;SDS011;27321;50.816;6.054;2023-02-25T14:40:23;2.57;;;1.10;;
41627;SDS011;27321;50.816;6.054;2023-02-25T14:43:33;3.13;;;1.00;;
41627;SDS011;27321;50.816;6.054;2023-02-25T14:46:45;3.00;;;0.90;;
41627;SDS011;27321;50.816;6.054;2023-02-25T15:04:46;2.60;;;1.10;;
41627;SDS011;27321;50.816;6.054;2023-02-25T15:23:24;4.47;;;1.20;;
41627;SDS011;27321;50.816;6.054;2023-02-25T15:36:00;5.63;;;1.53;;
41627;SDS011;27321;50.816;6.054;2023-02-25T15:45:47;2.90;;;1.33;;
41627;SDS011;27321;50.816;6.054;2023-02-25T15:52:10;5.57;;;1.30;;
41627;SDS011;27321;50.816;6.054;2023-02-25T15:55:32;4.38;;;1.38;;
41627;SDS011;27321;50.816;6.054;2023-02-25T16:02:00;4.50;;;1.03;;
41627;SDS011;27321;50.816;6.054;2023-02-25T16:08:16;3.43;;;1.10;;
41627;SDS011;27321;50.816;6.054;2023-02-25T16:11:36;2.07;;;0.83;;
41627;SDS011;27321;50.816;6.054;2023-02-25T16:14:43;4.30;;;1.50;;
41627;SDS011;27321;50.816;6.054;2023-02-25T16:20:48;2.63;;;1.15;;
41627;SDS011;27321;50.816;6.054;2023-02-25T16:23:52;2.30;;;1.07;;
41627;SDS011;27321;50.816;6.054;2023-02-25T16:27:04;1.85;;;0.82;;
41627;SDS011;27321;50.816;6.054;2023-02-25T16:30:33;5.60;;;1.10;;
41627;SDS011;27321;50.816;6.054;2023-02-25T16:33:48;3.93;;;1.20;;
41627;SDS011;27321;50.816;6.054;2023-02-25T16:37:06;4.57;;;1.53;;
41627;SDS011;27321;50.816;6.054;2023-02-25T16:40:24;4.73;;;1.10;;
41627;SDS011;27321;50.816;6.054;2023-02-25T16:43:31;3.13;;;0.77;;
41627;SDS011;27321;50.816;6.054;2023-02-25T16:46:38;5.30;;;0.87;;
41627;SDS011;27321;50.816;6.054;2023-02-25T16:49:42;1.17;;;0.77;;
41627;SDS011;27321;50.816;6.054;2023-02-25T16:52:46;3.50;;;1.00;;
41627;SDS011;27321;50.816;6.054;2023-02-25T16:55:49;7.03;;;1.00;;
41627;SDS011;27321;50.816;6.054;2023-02-25T17:02:20;5.10;;;1.00;;
41627;SDS011;27321;50.816;6.054;2023-02-25T17:05:29;3.03;;;0.57;;
41627;SDS011;27321;50.816;6.054;2023-02-25T17:11:46;2.30;;;0.80;;
41627;SDS011;27321;50.816;6.054;2023-02-25T17:14:54;1.83;;;0.90;;
41627;SDS011;27321;50.816;6.054;2023-02-25T17:18:07;4.10;;;1.00;;
41627;SDS011;27321;50.816;6.054;2023-02-25T17:24:29;4.87;;;1.17;;
41627;SDS011;27321;50.816;6.054;2023-02-25T17:27:32;4.47;;;0.87;;
41627;SDS011;27321;50.816;6.054;2023-02-25T17:30:38;2.40;;;0.98;;
41627;SDS011;27321;50.816;6.054;2023-02-25T17:33:46;3.05;;;1.33;;
41627;SDS011;27321;50.816;6.054;2023-02-25T17:36:52;4.93;;;1.37;;
41627;SDS011;27321;50.816;6.054;2023-02-25T17:39:54;3.35;;;1.10;;
41627;SDS011;27321;50.816;6.054;2023-02-25T17:43:16;2.57;;;1.70;;
41627;SDS011;27321;50.816;6.054;2023-02-25T17:46:37;6.97;;;2.57;;
41627;SDS011;27321;50.816;6.054;2023-02-25T17:49:43;3.93;;;1.57;;
41627;SDS011;27321;50.816;6.054;2023-02-25T17:52:46;11.35;;;1.40;;
41627;SDS011;27321;50.816;6.054;2023-02-25T17:55:48;3.47;;;1.23;;
41627;SDS011;27321;50.816;6.054;2023-02-25T17:58:50;3.60;;;1.45;;
41627;SDS011;27321;50.816;6.054;2023-02-25T18:02:01;3.17;;;1.30;;
41627;SDS011;27321;50.816;6.054;2023-02-25T18:05:24;2.07;;;1.13;;
41627;SDS011;27321;50.816;6.054;2023-02-25T18:08:25;4.35;;;1.30;;
41627;SDS011;27321;50.816;6.054;2023-02-25T18:11:48;7.27;;;2.63;;
41627;SDS011;27321;50.816;6.054;2023-02-25T18:14:56;5.20;;;1.23;;
41627;SDS011;27321;50.816;6.054;2023-02-25T18:18:01;2.70;;;1.20;;
41627;SDS011;27321;50.816;6.054;2023-02-25T18:21:07;3.53;;;1.20;;
41627;SDS011;27321;50.816;6.054;2023-02-25T18:24:29;3.43;;;1.50;;
41627;SDS011;27321;50.816;6.054;2023-02-25T18:27:36;2.97;;;1.37;;
41627;SDS011;27321;50.816;6.054;2023-02-25T18:30:37;5.43;;;1.50;;
41627;SDS011;27321;50.816;6.054;2023-02-25T18:33:39;5.00;;;1.10;;
41627;SDS011;27321;50.816;6.054;2023-02-25T18:43:36;4.88;;;1.60;;
41627;SDS011;27321;50.816;6.054;2023-02-25T18:46:42;3.50;;;1.37;;
41627;SDS011;27321;50.816;6.054;2023-02-25T18:49:43;3.47;;;1.30;;
41627;SDS011;27321;50.816;6.054;2023-02-25T18:52:45;5.05;;;1.40;;
41627;SDS011;27321;50.816;6.054;2023-02-25T18:58:49;4.65;;;1.33;;
41627;SDS011;27321;50.816;6.054;2023-02-25T19:02:53;3.23;;;1.20;;
41627;SDS011;27321;50.816;6.054;2023-02-25T19:06:45;1.93;;;1.40;;
41627;SDS011;27321;50.816;6.054;2023-02-25T19:13:25;6.37;;;1.50;;
41627;SDS011;27321;50.816;6.054;2023-02-25T19:16:31;5.87;;;1.43;;
41627;SDS011;27321;50.816;6.054;2023-02-25T19:19:32;2.30;;;1.17;;
41627;SDS011;27321;50.816;6.054;2023-02-25T19:22:33;4.27;;;1.80;;
41627;SDS011;27321;50.816;6.054;2023-02-25T19:25:44;3.67;;;1.30;;
41627;SDS011;27321;50.816;6.054;2023-02-25T19:28:49;4.57;;;1.57;;
41627;SDS011;27321;50.816;6.054;2023-02-25T19:31:50;2.43;;;1.17;;
41627;SDS011;27321;50.816;6.054;2023-02-25T19:34:51;4.70;;;1.40;;
41627;SDS011;27321;50.816;6.054;2023-02-25T19:37:52;4.27;;;1.37;;
41627;SDS011;27321;50.816;6.054;2023-02-25T19:40:54;4.93;;;1.10;;
41627;SDS011;27321;50.816;6.054;2023-02-25T19:44:01;4.20;;;1.27;;
41627;SDS011;27321;50.816;6.054;2023-02-25T19:47:02;4.57;;;1.55;;
41627;SDS011;27321;50.816;6.054;2023-02-25T19:50:06;2.43;;;1.40;;
41627;SDS011;27321;50.816;6.054;2023-02-25T19:53:10;2.07;;;1.17;;
41627;SDS011;27321;50.816;6.054;2023-02-25T19:56:11;4.27;;;1.30;;
41627;SDS011;27321;50.816;6.054;2023-02-25T19:59:12;3.30;;;1.40;;
41627;SDS011;27321;50.816;6.054;2023-02-25T20:02:14;3.53;;;1.33;;
41627;SDS011;27321;50.816;6.054;2023-02-25T20:05:15;2.88;;;1.67;;
41627;SDS011;27321;50.816;6.054;2023-02-25T20:08:16;3.33;;;1.50;;
41627;SDS011;27321;50.816;6.054;2023-02-25T20:11:18;10.60;;;2.38;;
41627;SDS011;27321;50.816;6.054;2023-02-25T20:14:19;4.35;;;1.80;;
41627;SDS011;27321;50.816;6.054;2023-02-25T20:17:22;5.97;;;2.03;;
41627;SDS011;27321;50.816;6.054;2023-02-25T20:20:23;4.13;;;1.87;;
41627;SDS011;27321;50.816;6.054;2023-02-25T20:23:24;4.55;;;2.05;;
41627;SDS011;27321;50.816;6.054;2023-02-25T20:26:26;5.40;;;2.07;;
41627;SDS011;27321;50.816;6.054;2023-02-25T20:29:29;6.80;;;2.20;;
41627;SDS011;27321;50.816;6.054;2023-02-25T20:32:30;5.80;;;1.67;;
41627;SDS011;27321;50.816;6.054;2023-02-25T20:35:31;5.83;;;2.03;;
41627;SDS011;27321;50.816;6.054;2023-02-25T20:38:34;4.43;;;1.77;;
41627;SDS011;27321;50.816;6.054;2023-02-25T20:41:41;3.90;;;2.10;;
41627;SDS011;27321;50.816;6.054;2023-02-25T20:44:44;4.27;;;1.87;;
41627;SDS011;27321;50.816;6.054;2023-02-25T20:47:46;5.63;;;2.43;;
41627;SDS011;27321;50.816;6.054;2023-02-25T20:50:48;5.85;;;2.20;;
41627;SDS011;27321;50.816;6.054;2023-02-25T20:53:50;6.10;;;2.63;;
41627;SDS011;27321;50.816;6.054;2023-02-25T20:59:52;3.67;;;1.97;;
41627;SDS011;27321;50.816;6.054;2023-02-25T21:02:54;5.80;;;2.17;;
41627;SDS011;27321;50.816;6.054;2023-02-25T21:05:55;3.73;;;2.10;;
41627;SDS011;27321;50.816;6.054;2023-02-25T21:08:56;3.30;;;2.13;;
41627;SDS011;27321;50.816;6.054;2023-02-25T21:11:57;8.45;;;2.92;;
41627;SDS011;27321;50.816;6.054;2023-02-25T21:14:59;5.68;;;2.17;;
41627;SDS011;27321;50.816;6.054;2023-02-25T21:18:00;4.80;;;2.93;;
41627;SDS011;27321;50.816;6.054;2023-02-25T21:21:04;4.55;;;2.47;;
41627;SDS011;27321;50.816;6.054;2023-02-25T21:24:07;7.20;;;2.50;;
41627;SDS011;27321;50.816;6.054;2023-02-25T21:27:09;6.00;;;2.50;;
41627;SDS011;27321;50.816;6.054;2023-02-25T21:30:11;5.82;;;2.58;;
41627;SDS011;27321;50.816;6.054;2023-02-25T21:33:16;6.83;;;2.33;;
41627;SDS011;27321;50.816;6.054;2023-02-25T21:36:18;6.37;;;2.90;;
41627;SDS011;27321;50.816;6.054;2023-02-25T21:39:19;4.23;;;2.40;;
41627;SDS011;27321;50.816;6.054;2023-02-25T21:42:20;7.27;;;3.00;;
41627;SDS011;27321;50.816;6.054;2023-02-25T21:45:21;5.38;;;2.90;;
41627;SDS011;27321;50.816;6.054;2023-02-25T21:48:22;6.32;;;3.20;;
41627;SDS011;27321;50.816;6.054;2023-02-25T21:51:26;6.27;;;2.90;;
41627;SDS011;27321;50.816;6.054;2023-02-25T21:54:29;5.40;;;2.80;;
41627;SDS011;27321;50.816;6.054;2023-02-25T21:57:29;4.38;;;2.45;;
41627;SDS011;27321;50.816;6.054;2023-02-25T22:00:30;6.20;;;3.10;;
41627;SDS011;27321;50.816;6.054;2023-02-25T22:03:35;7.90;;;3.07;;
41627;SDS011;27321;50.816;6.054;2023-02-25T22:06:36;7.87;;;2.80;;
41627;SDS011;27321;50.816;6.054;2023-02-25T22:09:38;5.45;;;2.53;;
41627;SDS011;27321;50.816;6.054;2023-02-25T22:12:39;6.07;;;2.80;;
41627;SDS011;27321;50.816;6.054;2023-02-25T22:15:45;4.88;;;2.17;;
41627;SDS011;27321;50.816;6.054;2023-02-25T22:18:48;6.70;;;2.83;;
41627;SDS011;27321;50.816;6.054;2023-02-25T22:21:51;6.07;;;2.93;;
41627;SDS011;27321;50.816;6.054;2023-02-25T22:24:52;6.10;;;2.83;;
41627;SDS011;27321;50.816;6.054;2023-02-25T22:27:54;8.87;;;3.93;;
41627;SDS011;27321;50.816;6.054;2023-02-25T22:30:56;11.53;;;4.17;;
41627;SDS011;27321;50.816;6.054;2023-02-25T22:33:57;7.85;;;4.05;;
41627;SDS011;27321;50.816;6.054;2023-02-25T22:36:58;10.27;;;3.83;;
41627;SDS011;27321;50.816;6.054;2023-02-25T22:39:59;9.67;;;4.07;;
41627;SDS011;27321;50.816;6.054;2023-02-25T22:43:01;7.55;;;3.83;;
41627;SDS011;27321;50.816;6.054;2023-02-25T22:46:06;9.93;;;3.60;;
41627;SDS011;27321;50.816;6.054;2023-02-25T22:49:10;4.90;;;2.77;;
41627;SDS011;27321;50.816;6.054;2023-02-25T22:52:11;6.15;;;3.17;;
41627;SDS011;27321;50.816;6.054;2023-02-25T22:55:12;8.97;;;3.33;;
41627;SDS011;27321;50.816;6.054;2023-02-25T22:58:13;5.63;;;2.90;;
41627;SDS011;27321;50.816;6.054;2023-02-25T23:01:15;6.33;;;3.20;;
41627;SDS011;27321;50.816;6.054;2023-02-25T23:04:20;5.33;;;2.70;;
41627;SDS011;27321;50.816;6.054;2023-02-25T23:07:22;8.37;;;2.67;;
41627;SDS011;27321;50.816;6.054;2023-02-25T23:13:24;7.90;;;2.70;;